createdAt,value
2022-08-09T00:07:00.586Z,100672.06
2022-08-09T00:17:05.695Z,100677.94
2022-08-09T00:27:07.343Z,100694.94
2022-08-09T00:37:10.259Z,100694.22
2022-08-09T00:47:15.414Z,100685.53
2022-08-09T00:57:33.581Z,100663.59
2022-08-09T01:08:00.057Z,100668.50
2022-08-09T01:18:14.107Z,100658.03
2022-08-09T01:28:16.556Z,100653.06
2022-08-09T01:38:24.650Z,100649.63
2022-08-09T01:48:29.629Z,100642.78
2022-08-09T01:58:33.763Z,100629.09
2022-08-09T02:08:58.978Z,100629.72
2022-08-09T02:19:08.500Z,100644.41
2022-08-09T02:29:25.742Z,100635.59
2022-08-09T02:39:33.470Z,100616.72
2022-08-09T02:49:41.638Z,100616.91
2022-08-09T03:00:21.240Z,100627.75
2022-08-09T03:10:07.831Z,100631.59
2022-08-09T03:20:11.598Z,100637.16
2022-08-09T03:30:29.291Z,100639.00
2022-08-09T03:40:35.528Z,100638.34
2022-08-09T03:50:40.273Z,100623.75
2022-08-09T04:00:47.856Z,100634.25
2022-08-09T04:10:49.964Z,100629.75
2022-08-09T04:20:51.660Z,100644.88
2022-08-09T04:30:53.452Z,100655.97
2022-08-09T04:41:01.817Z,100650.09
2022-08-09T04:51:04.201Z,100662.69
2022-08-09T05:01:16.313Z,100659.44
2022-08-09T05:11:30.635Z,100662.06
2022-08-09T05:21:47.062Z,100673.03
2022-08-09T05:31:57.186Z,100679.63
2022-08-09T05:42:01.493Z,100671.69
2022-08-09T05:52:07.499Z,100680.53
2022-08-09T06:02:10.186Z,100680.97
2022-08-09T06:12:12.244Z,100690.53
2022-08-09T06:22:15.666Z,100670.84
2022-08-09T06:33:13.790Z,100692.84
2022-08-09T06:42:44.995Z,100692.59
2022-08-09T06:52:48.750Z,100692.66
2022-08-09T07:02:51.554Z,100687.81
2022-08-09T07:12:57.627Z,100684.47
2022-08-09T07:23:19.186Z,100698.69
2022-08-09T07:33:23.567Z,100695.88
2022-08-09T07:43:29.101Z,100683.03
2022-08-09T07:53:36.519Z,100680.84
2022-08-09T08:03:55.302Z,100661.41
2022-08-09T08:13:57.671Z,100688.78
2022-08-09T08:24:11.921Z,100680.88
2022-08-09T08:34:20.965Z,100684.84
2022-08-09T08:44:29.795Z,100680.06
2022-08-09T08:54:31.879Z,100665.88
2022-08-09T09:04:41.599Z,100664.72
2022-08-09T09:14:52.007Z,100657.22
2022-08-09T09:26:01.652Z,100671.34
2022-08-09T09:35:21.349Z,100667.75
2022-08-09T09:45:25.839Z,100681.03
2022-08-09T09:55:32.937Z,100672.34
2022-08-09T10:06:03.950Z,100662.13
2022-08-09T10:16:55.690Z,100656.97
2022-08-09T10:26:26.871Z,100650.56
2022-08-09T10:36:31.080Z,100647.06
2022-08-09T10:48:12.425Z,100644.28
2022-08-09T10:57:41.748Z,100637.63
2022-08-09T11:07:57.270Z,100624.22
2022-08-09T11:18:03.922Z,100630.25
2022-08-09T11:28:38.762Z,100628.28
2022-08-09T11:39:02.283Z,100616.91
2022-08-09T11:49:05.096Z,100614.63
2022-08-09T11:59:09.303Z,100605.91
2022-08-09T12:09:19.310Z,100581.88
2022-08-09T12:19:32.315Z,100591.72
2022-08-09T12:29:52.709Z,100582.13
2022-08-09T12:40:08.496Z,100579.22
2022-08-09T12:50:19.615Z,100566.47
2022-08-09T13:00:34.591Z,100537.06
2022-08-09T13:10:53.805Z,100568.84
2022-08-09T13:22:33.367Z,100545.13
2022-08-09T13:32:13.405Z,100569.19
2022-08-09T13:41:57.339Z,100560.81
2022-08-09T13:52:04.124Z,100553.88
2022-08-09T14:02:12.747Z,100542.19
2022-08-09T14:12:21.602Z,100543.16
2022-08-09T14:22:26.113Z,100543.78
2022-08-09T14:32:34.008Z,100561.66
2022-08-09T14:42:40.450Z,100540.00
2022-08-09T14:52:42.841Z,100541.63
2022-08-09T15:02:47.506Z,100548.06
2022-08-09T15:12:56.369Z,100537.09
2022-08-09T15:23:02.982Z,100538.84
2022-08-09T15:33:57.556Z,100540.59
2022-08-09T15:43:43.766Z,100534.06
2022-08-09T15:54:04.581Z,100537.78
2022-08-09T16:04:13.494Z,100541.53
2022-08-09T16:14:31.420Z,100530.31
2022-08-09T16:24:36.480Z,100540.69
2022-08-09T16:34:55.866Z,100540.97
2022-08-09T16:45:01.029Z,100541.28
2022-08-09T16:55:03.485Z,100543.97
2022-08-09T17:05:14.030Z,100553.41
2022-08-09T17:15:59.309Z,100556.59
2022-08-09T17:25:52.780Z,100554.47
2022-08-09T17:35:56.036Z,100545.38
2022-08-09T17:46:03.012Z,100569.91
2022-08-09T17:56:08.350Z,100585.91
2022-08-09T18:06:14.874Z,100598.97
2022-08-09T18:16:35.811Z,100610.50
2022-08-09T18:26:51.891Z,100622.41
2022-08-09T18:36:58.419Z,100649.09
2022-08-09T18:47:07.947Z,100677.16
2022-08-09T18:57:12.217Z,100692.66
2022-08-09T19:07:23.057Z,100701.38
2022-08-09T19:17:31.204Z,100723.78
2022-08-09T19:27:52.536Z,100742.88
2022-08-09T19:37:57.521Z,100763.13
2022-08-09T19:48:03.019Z,100784.34
2022-08-09T19:58:16.314Z,100777.69
2022-08-09T20:08:24.683Z,100785.56
2022-08-09T20:18:35.681Z,100773.16
2022-08-09T20:28:48.623Z,100792.13
2022-08-09T20:39:27.996Z,100806.47
2022-08-09T20:49:28.634Z,100801.28
2022-08-09T21:00:19.359Z,100820.88
2022-08-09T21:10:01.552Z,100823.72
2022-08-09T21:20:25.475Z,100816.22
2022-08-09T21:30:28.111Z,100834.13
2022-08-09T21:40:32.792Z,100839.84
2022-08-09T21:50:39.252Z,100833.38
2022-08-09T22:00:52.454Z,100840.81
2022-08-09T22:11:48.809Z,100832.97
2022-08-09T22:21:22.331Z,100826.56
2022-08-09T22:31:25.849Z,100830.06
2022-08-09T22:41:29.674Z,100816.16
2022-08-09T22:51:33.729Z,100815.78
2022-08-09T23:01:42.257Z,100811.63
2022-08-09T23:11:44.261Z,100810.09
2022-08-09T23:21:49.022Z,100813.25
2022-08-09T23:31:54.472Z,100819.19
2022-08-09T23:41:57.387Z,100797.19
2022-08-09T23:52:12.116Z,100808.47
